createdAt,value
2023-04-10T00:01:35.990Z,100549.66
2023-04-10T00:04:06.737Z,100555.84
2023-04-10T00:06:41.286Z,100545.47
2023-04-10T00:09:11.770Z,100546.41
2023-04-10T00:11:42.213Z,100544.81
2023-04-10T00:14:12.424Z,100543.31
2023-04-10T00:16:42.688Z,100545.94
2023-04-10T00:19:12.983Z,100539.94
2023-04-10T00:21:46.266Z,100534.50
2023-04-10T00:24:16.714Z,100540.13
2023-04-10T00:26:46.985Z,100538.25
2023-04-10T00:29:17.293Z,100534.84
2023-04-10T00:31:49.380Z,100531.97
2023-04-10T00:34:19.683Z,100529.16
2023-04-10T00:36:52.582Z,100535.34
2023-04-10T00:39:22.794Z,100533.09
2023-04-10T00:41:53.768Z,100537.59
2023-04-10T00:44:24.095Z,100540.03
2023-04-10T00:46:54.776Z,100532.06
2023-04-10T00:49:29.986Z,100494.78
2023-04-10T00:52:03.169Z,100525.97
2023-04-10T00:54:36.371Z,100529.34
2023-04-10T01:10:56.731Z,100527.84
2023-04-10T01:23:36.582Z,100521.50
2023-04-10T01:26:12.742Z,100517.72
2023-04-10T01:29:07.260Z,100516.03
2023-04-10T01:31:41.953Z,100516.69
2023-04-10T01:34:14.862Z,100515.25
2023-04-10T01:36:53.629Z,100506.03
2023-04-10T01:39:25.910Z,100508.97
2023-04-10T01:41:58.139Z,100506.50
2023-04-10T01:44:35.200Z,100506.69
2023-04-10T01:47:10.162Z,100502.81
2023-04-10T01:49:46.888Z,100510.19
2023-04-10T01:52:19.498Z,100504.28
2023-04-10T01:54:51.451Z,100509.13
2023-04-10T01:57:22.234Z,100509.38
2023-04-10T01:59:55.693Z,100501.06
2023-04-10T02:02:26.537Z,100499.41
2023-04-10T02:05:00.307Z,100498.75
2023-04-10T02:07:38.713Z,100494.59
2023-04-10T02:10:14.088Z,100500.84
2023-04-10T02:12:49.652Z,100495.84
2023-04-10T02:15:24.405Z,100495.94
2023-04-10T02:17:55.842Z,100499.56
2023-04-10T02:20:27.672Z,100503.38
2023-04-10T02:23:00.339Z,100491.41
2023-04-10T02:25:30.954Z,100491.41
2023-04-10T02:28:01.319Z,100491.56
2023-04-10T02:30:34.785Z,100490.81
2023-04-10T02:33:05.182Z,100495.44
2023-04-10T02:35:39.636Z,100496.44
2023-04-10T02:38:09.980Z,100494.94
2023-04-10T02:40:40.266Z,100491.13
2023-04-10T02:43:10.626Z,100490.19
2023-04-10T02:45:44.071Z,100496.38
2023-04-10T02:48:16.686Z,100478.34
2023-04-10T02:50:47.695Z,100490.13
2023-04-10T02:53:20.181Z,100486.75
2023-04-10T02:55:50.509Z,100494.91
2023-04-10T02:58:21.556Z,100489.16
2023-04-10T03:00:55.716Z,100493.63
2023-04-10T03:03:26.276Z,100496.53
2023-04-10T03:05:57.359Z,100492.94
2023-04-10T03:08:27.713Z,100491.44
2023-04-10T03:10:58.130Z,100497.69
2023-04-10T03:13:28.417Z,100487.97
2023-04-10T03:16:01.342Z,100491.75
2023-04-10T03:18:32.218Z,100493.78
2023-04-10T03:21:02.932Z,100494.69
2023-04-10T03:23:33.466Z,100489.47
2023-04-10T03:26:04.908Z,100493.16
2023-04-10T03:28:36.875Z,100489.53
2023-04-10T03:31:10.910Z,100494.84
2023-04-10T03:33:41.192Z,100490.69
2023-04-10T03:36:12.467Z,100495.00
2023-04-10T03:38:42.772Z,100488.56
2023-04-10T03:41:13.811Z,100493.59
2023-04-10T03:43:44.051Z,100496.78
2023-04-10T03:46:17.225Z,100501.09
2023-04-10T03:48:47.806Z,100506.25
2023-04-10T03:51:18.159Z,100500.25
2023-04-10T03:53:54.931Z,100505.50
2023-04-10T03:56:26.403Z,100500.53
2023-04-10T03:58:56.642Z,100501.81
2023-04-10T04:01:29.408Z,100501.09
2023-04-10T04:04:00.314Z,100497.88
2023-04-10T04:06:32.123Z,100501.19
2023-04-10T04:09:02.369Z,100504.56
2023-04-10T04:11:32.752Z,100505.34
2023-04-10T04:14:03.054Z,100516.81
2023-04-10T04:16:36.085Z,100504.34
2023-04-10T04:19:06.494Z,100507.72
2023-04-10T04:21:36.705Z,100498.91
2023-04-10T04:24:07.237Z,100502.09
2023-04-10T04:26:37.538Z,100515.81
2023-04-10T04:29:07.841Z,100515.25
2023-04-10T04:31:40.895Z,100515.03
2023-04-10T04:34:11.161Z,100506.88
2023-04-10T04:36:41.386Z,100513.59
2023-04-10T04:39:11.781Z,100509.13
2023-04-10T04:41:42.151Z,100517.66
2023-04-10T04:44:14.581Z,100519.28
2023-04-10T04:46:47.482Z,100487.91
2023-04-10T04:49:17.774Z,100518.44
2023-04-10T04:51:50.106Z,100511.25
2023-04-10T04:54:20.509Z,100512.94
2023-04-10T04:56:50.897Z,100513.44
2023-04-10T04:59:22.573Z,100513.44
2023-04-10T05:01:57.014Z,100510.41
2023-04-10T05:04:27.656Z,100516.34
2023-04-10T05:06:58.128Z,100516.16
2023-04-10T05:09:28.399Z,100519.09
2023-04-10T05:12:05.747Z,100526.47
2023-04-10T05:14:38.471Z,100518.88
2023-04-10T05:17:11.435Z,100522.41
2023-04-10T05:19:42.012Z,100526.13
2023-04-10T05:22:12.400Z,100528.78
2023-04-10T05:24:42.659Z,100524.25
2023-04-10T05:27:12.931Z,100519.13
2023-04-10T05:29:43.276Z,100519.47
2023-04-10T05:32:16.852Z,100519.09
2023-04-10T05:34:47.277Z,100522.94
2023-04-10T05:37:17.519Z,100491.59
2023-04-10T05:39:48.266Z,100525.03
2023-04-10T05:42:18.539Z,100524.00
2023-04-10T05:44:48.845Z,100518.63
2023-04-10T05:47:21.673Z,100523.72
2023-04-10T05:49:51.928Z,100521.44
2023-04-10T05:52:25.155Z,100521.22
2023-04-10T05:54:55.344Z,100516.19
2023-04-10T05:57:25.877Z,100515.44
2023-04-10T05:59:56.335Z,100515.94
2023-04-10T06:02:29.492Z,100513.22
2023-04-10T06:05:00.088Z,100512.63
2023-04-10T06:07:30.410Z,100517.47
2023-04-10T06:10:01.340Z,100520.00
2023-04-10T06:12:31.536Z,100518.31
2023-04-10T06:15:01.882Z,100519.78
2023-04-10T06:17:34.849Z,100520.75
2023-04-10T06:20:06.466Z,100517.06
2023-04-10T06:22:36.827Z,100524.00
2023-04-10T06:25:08.409Z,100518.78
2023-04-10T06:27:38.949Z,100516.09
2023-04-10T06:30:11.515Z,100515.47
2023-04-10T06:32:45.006Z,100508.72
2023-04-10T06:35:15.322Z,100512.66
2023-04-10T06:37:47.482Z,100503.56
2023-04-10T06:40:20.683Z,100510.81
2023-04-10T06:42:50.933Z,100501.22
2023-04-10T06:45:23.777Z,100504.47
2023-04-10T06:47:57.028Z,100500.09
2023-04-10T06:50:27.488Z,100500.97
2023-04-10T06:53:00.194Z,100504.13
2023-04-10T06:55:32.244Z,100499.16
2023-04-10T06:58:03.149Z,100491.00
2023-04-10T07:00:34.089Z,100500.75
2023-04-10T07:03:07.073Z,100497.28
2023-04-10T07:05:38.633Z,100499.16
2023-04-10T07:08:13.539Z,100500.63
2023-04-10T07:10:43.964Z,100499.06
2023-04-10T07:13:14.470Z,100507.13
2023-04-10T07:15:44.989Z,100507.31
2023-04-10T07:18:17.886Z,100508.28
2023-04-10T07:20:51.320Z,100517.31
2023-04-10T07:23:21.547Z,100521.44
2023-04-10T07:25:52.410Z,100517.25
2023-04-10T07:28:22.818Z,100520.41
2023-04-10T07:30:53.095Z,100527.97
2023-04-10T07:33:29.081Z,100526.28
2023-04-10T07:35:59.416Z,100502.59
2023-04-10T07:38:29.733Z,100531.56
2023-04-10T07:41:00.399Z,100527.59
2023-04-10T07:43:35.936Z,100522.41
2023-04-10T07:46:06.410Z,100531.56
2023-04-10T07:48:39.327Z,100516.75
2023-04-10T07:51:12.579Z,100522.41
2023-04-10T07:53:43.057Z,100528.78
2023-04-10T07:56:20.260Z,100523.13
2023-04-10T07:58:51.058Z,100523.88
2023-04-10T08:01:21.754Z,100518.84
2023-04-10T08:03:55.638Z,100522.31
2023-04-10T08:06:26.161Z,100505.25
2023-04-10T08:08:59.053Z,100529.03
2023-04-10T08:11:30.960Z,100528.34
2023-04-10T08:14:02.631Z,100529.31
2023-04-10T08:16:34.738Z,100525.69
2023-04-10T08:19:08.341Z,100521.84
2023-04-10T08:21:38.669Z,100520.91
2023-04-10T08:24:09.252Z,100515.47
2023-04-10T08:26:39.629Z,100523.03
2023-04-10T08:29:09.913Z,100513.91
2023-04-10T08:31:40.922Z,100513.53
2023-04-10T08:34:14.793Z,100504.53
2023-04-10T08:36:44.793Z,100515.69
2023-04-10T08:39:15.066Z,100509.06
2023-04-10T08:41:45.798Z,100504.72
2023-04-10T08:44:16.863Z,100508.94
2023-04-10T08:46:48.221Z,100506.81
2023-04-10T08:49:27.960Z,100505.22
2023-04-10T08:52:00.708Z,100492.75
2023-04-10T08:54:36.162Z,100493.34
2023-04-10T08:57:08.562Z,100494.88
2023-04-10T08:59:40.379Z,100495.53
2023-04-10T09:09:06.125Z,100492.00
2023-04-10T09:12:09.426Z,100493.63
2023-04-10T09:14:40.856Z,100495.63
2023-04-10T09:17:19.500Z,100493.03
2023-04-10T09:19:52.782Z,100496.69
2023-04-10T09:22:33.478Z,100482.22
2023-04-10T09:25:08.274Z,100488.88
2023-04-10T09:27:42.441Z,100485.78
2023-04-10T09:30:29.185Z,100492.16
2023-04-10T09:33:00.612Z,100478.13
2023-04-10T09:35:40.795Z,100470.78
2023-04-10T09:38:19.238Z,100471.28
2023-04-10T09:40:53.756Z,100476.06
2023-04-10T09:43:27.511Z,100460.03
2023-04-10T09:45:59.391Z,100463.31
2023-04-10T09:48:29.751Z,100460.34
2023-04-10T09:51:31.976Z,100457.72
2023-04-10T09:54:02.589Z,100450.09
2023-04-10T09:56:41.172Z,100439.78
2023-04-10T09:59:16.886Z,100451.63
2023-04-10T10:01:47.905Z,100449.31
2023-04-10T10:04:19.291Z,100448.59
2023-04-10T10:06:49.764Z,100424.81
2023-04-10T10:09:20.440Z,100455.03
2023-04-10T10:11:59.254Z,100447.66
2023-04-10T10:14:31.861Z,100452.16
2023-04-10T10:17:26.535Z,100456.88
2023-04-10T10:20:04.195Z,100432.03
2023-04-10T10:23:02.130Z,100445.34
2023-04-10T10:25:34.225Z,100442.56
2023-04-10T10:28:08.577Z,100434.75
2023-04-10T10:30:40.600Z,100434.16
2023-04-10T10:33:11.708Z,100399.69
2023-04-10T10:35:43.787Z,100419.59
2023-04-10T10:38:14.669Z,100419.34
2023-04-10T10:40:55.369Z,100418.31
2023-04-10T10:43:38.590Z,100420.84
2023-04-10T10:46:15.878Z,100420.75
2023-04-10T10:48:58.885Z,100411.88
2023-04-10T10:51:48.740Z,100403.72
2023-04-10T10:54:32.434Z,100401.97
2023-04-10T10:57:03.282Z,100407.94
2023-04-10T11:00:00.276Z,100398.78
2023-04-10T11:02:30.809Z,100407.25
2023-04-10T11:05:01.147Z,100404.53
2023-04-10T11:08:13.526Z,100396.00
2023-04-10T11:11:02.832Z,100385.72
2023-04-10T11:13:33.190Z,100379.94
2023-04-10T11:16:10.338Z,100387.13
2023-04-10T11:19:14.265Z,100382.41
2023-04-10T11:22:05.417Z,100341.25
2023-04-10T11:25:00.820Z,100369.66
2023-04-10T11:27:45.183Z,100348.63
2023-04-10T11:30:37.840Z,100355.47
2023-04-10T11:33:11.169Z,100355.59
2023-04-10T11:35:41.875Z,100357.22
2023-04-10T11:38:17.627Z,100359.88
2023-04-10T11:41:04.430Z,100351.34
2023-04-10T11:43:36.147Z,100354.91
2023-04-10T11:46:08.965Z,100351.97
2023-04-10T11:48:45.404Z,100345.81
2023-04-10T11:51:17.217Z,100340.50
2023-04-10T11:53:47.555Z,100335.63
2023-04-10T11:56:22.769Z,100327.06
2023-04-10T11:58:56.315Z,100300.53
2023-04-10T12:01:27.375Z,100314.72
2023-04-10T12:04:00.880Z,100325.25
2023-04-10T12:06:32.118Z,100308.19
2023-04-10T12:09:04.805Z,100305.63
2023-04-10T12:11:37.643Z,100302.53
2023-04-10T12:14:08.256Z,100299.31
2023-04-10T12:16:38.911Z,100306.09
2023-04-10T12:19:12.084Z,100297.13
2023-04-10T12:21:44.129Z,100280.53
2023-04-10T12:24:15.019Z,100288.06
2023-04-10T12:26:52.156Z,100287.19
2023-04-10T12:29:27.887Z,100284.72
2023-04-10T12:31:58.234Z,100275.19
2023-04-10T12:34:31.279Z,100276.56
2023-04-10T12:37:01.547Z,100267.56
2023-04-10T12:39:32.167Z,100269.00
2023-04-10T12:42:16.116Z,100262.56
2023-04-10T12:44:56.758Z,100266.56
2023-04-10T12:47:27.884Z,100258.94
2023-04-10T12:50:13.103Z,100258.59
2023-04-10T12:52:45.919Z,100252.25
2023-04-10T12:55:17.691Z,100253.38
2023-04-10T12:57:49.317Z,100252.59
2023-04-10T13:00:21.843Z,100244.50
2023-04-10T13:02:52.547Z,100236.22
2023-04-10T13:05:25.694Z,100231.75
2023-04-10T13:07:56.011Z,100214.56
2023-04-10T13:10:27.084Z,100221.66
2023-04-10T13:12:57.432Z,100206.72
2023-04-10T13:15:27.703Z,100212.78
2023-04-10T13:17:59.612Z,100210.16
2023-04-10T13:20:33.203Z,100203.69
2023-04-10T13:30:26.258Z,100191.56
2023-04-10T13:32:56.794Z,100180.25
2023-04-10T13:35:27.126Z,100186.84
2023-04-10T13:38:00.538Z,100185.50
2023-04-10T13:40:31.425Z,100173.16
2023-04-10T13:43:01.799Z,100171.22
2023-04-10T13:45:32.201Z,100171.84
2023-04-10T13:48:07.416Z,100166.00
2023-04-10T13:50:40.385Z,100160.19
2023-04-10T13:53:13.340Z,100174.81
2023-04-10T14:09:35.102Z,100153.84
2023-04-10T14:12:05.665Z,100160.41
2023-04-10T14:14:36.016Z,100164.28
2023-04-10T14:17:06.387Z,100156.38
2023-04-10T14:19:38.106Z,100142.75
2023-04-10T14:22:08.869Z,100156.75
2023-04-10T14:24:41.750Z,100151.94
2023-04-10T14:27:13.327Z,100168.66
2023-04-10T14:29:53.918Z,100172.09
2023-04-10T14:32:25.286Z,100159.75
2023-04-10T14:34:55.667Z,100151.00
2023-04-10T14:37:26.128Z,100159.72
2023-04-10T14:39:59.224Z,100161.28
2023-04-10T14:42:29.715Z,100162.19
2023-04-10T14:45:02.893Z,100162.81
2023-04-10T14:47:33.517Z,100168.28
2023-04-10T14:50:04.206Z,100178.66
2023-04-10T14:52:37.270Z,100193.72
2023-04-10T14:55:13.703Z,100196.75
2023-04-10T14:57:48.982Z,100192.22
2023-04-10T15:00:20.467Z,100193.75
2023-04-10T15:02:50.976Z,100190.16
2023-04-10T15:05:21.693Z,100188.75
2023-04-10T15:07:52.193Z,100181.50
2023-04-10T15:10:25.699Z,100172.28
2023-04-10T15:12:56.074Z,100170.63
2023-04-10T15:15:26.349Z,100165.19
2023-04-10T15:17:58.105Z,100166.16
2023-04-10T15:20:29.111Z,100158.06
2023-04-10T15:22:59.603Z,100133.22
2023-04-10T15:25:32.514Z,100160.13
2023-04-10T15:28:02.838Z,100153.84
2023-04-10T15:30:33.815Z,100154.84
2023-04-10T15:33:04.548Z,100141.56
2023-04-10T15:35:37.039Z,100139.63
2023-04-10T15:38:09.975Z,100142.84
2023-04-10T15:40:43.961Z,100137.13
2023-04-10T15:43:14.113Z,100142.97
2023-04-10T15:45:44.659Z,100141.28
2023-04-10T15:48:15.317Z,100145.75
2023-04-10T15:50:45.786Z,100134.56
2023-04-10T15:53:16.297Z,100141.56
2023-04-10T15:55:49.370Z,100131.78
2023-04-10T15:58:19.836Z,100142.63
2023-04-10T16:00:50.164Z,100142.94
2023-04-10T16:03:20.894Z,100140.28
2023-04-10T16:05:51.190Z,100144.75
2023-04-10T16:08:21.615Z,100145.56
2023-04-10T16:10:54.526Z,100141.13
2023-04-10T16:13:25.084Z,100148.41
2023-04-10T16:15:57.757Z,100142.16
2023-04-10T16:18:30.521Z,100146.06
2023-04-10T16:21:01.056Z,100151.63
2023-04-10T16:23:35.428Z,100156.50
2023-04-10T16:26:08.890Z,100143.53
2023-04-10T16:28:40.286Z,100155.25
2023-04-10T16:31:10.944Z,100151.22
2023-04-10T16:33:41.849Z,100140.63
2023-04-10T16:36:15.356Z,100138.94
2023-04-10T16:38:45.878Z,100140.59
2023-04-10T16:41:21.889Z,100140.47
2023-04-10T16:43:52.375Z,100133.22
2023-04-10T16:46:23.496Z,100134.31
2023-04-10T16:48:54.180Z,100135.16
2023-04-10T16:51:27.220Z,100133.63
2023-04-10T16:54:00.037Z,100132.09
2023-04-10T16:56:37.709Z,100139.06
2023-04-10T16:59:12.465Z,100139.22
2023-04-10T17:01:42.759Z,100135.03
2023-04-10T17:04:13.735Z,100133.00
2023-04-10T17:06:44.067Z,100130.63
2023-04-10T17:09:14.492Z,100125.91
2023-04-10T17:11:47.393Z,100130.19
2023-04-10T17:14:17.879Z,100133.13
2023-04-10T17:16:48.418Z,100138.91
2023-04-10T17:19:19.613Z,100138.53
2023-04-10T17:21:49.917Z,100140.34
2023-04-10T17:24:33.162Z,100134.44
2023-04-10T17:27:06.237Z,100149.19
2023-04-10T17:29:39.953Z,100147.59
2023-04-10T17:32:11.511Z,100138.63
2023-04-10T17:34:41.805Z,100142.31
2023-04-10T17:37:13.000Z,100135.34
2023-04-10T17:39:46.304Z,100126.97
2023-04-10T17:42:19.697Z,100128.06
2023-04-10T17:44:54.978Z,100134.56
2023-04-10T17:47:25.306Z,100126.75
2023-04-10T17:49:59.954Z,100135.91
2023-04-10T17:52:30.158Z,100142.59
2023-04-10T17:55:03.103Z,100139.53
2023-04-10T17:57:36.041Z,100136.16
2023-04-10T18:00:15.781Z,100128.25
2023-04-10T18:02:46.368Z,100125.88
2023-04-10T18:05:16.720Z,100113.03
2023-04-10T18:07:48.975Z,100123.75
2023-04-10T18:10:19.642Z,100136.25
2023-04-10T18:12:53.133Z,100140.81
2023-04-10T18:15:23.410Z,100133.84
2023-04-10T18:17:53.836Z,100132.09
2023-04-10T18:20:24.252Z,100135.38
2023-04-10T18:22:54.638Z,100133.81
2023-04-10T18:25:25.238Z,100134.78
2023-04-10T18:28:13.541Z,100132.16
2023-04-10T18:30:45.231Z,100129.13
2023-04-10T18:39:14.630Z,100132.56
2023-04-10T18:41:45.380Z,100133.91
2023-04-10T18:44:18.339Z,100139.44
2023-04-10T18:47:01.354Z,100132.59
2023-04-10T18:49:34.522Z,100135.50
2023-04-10T18:55:33.141Z,100133.13
2023-04-10T18:58:03.925Z,100130.94
2023-04-10T19:00:37.111Z,100128.19
2023-04-10T19:03:08.382Z,100126.91
2023-04-10T19:05:38.876Z,100124.50
2023-04-10T19:08:09.478Z,100129.41
2023-04-10T19:10:40.941Z,100127.03
2023-04-10T19:13:12.289Z,100116.09
2023-04-10T19:15:47.648Z,100122.72
2023-04-10T19:18:19.033Z,100122.47
2023-04-10T19:20:52.846Z,100129.41
2023-04-10T19:23:24.420Z,100132.91
2023-04-10T19:33:02.547Z,100137.94
2023-04-10T19:35:33.390Z,100126.31
2023-04-10T19:38:03.859Z,100125.06
2023-04-10T19:40:37.246Z,100129.13
2023-04-10T19:43:07.620Z,100114.63
2023-04-10T19:45:39.911Z,100120.34
2023-04-10T19:48:14.555Z,100118.38
2023-04-10T19:50:49.267Z,100112.88
2023-04-10T19:53:21.750Z,100121.81
2023-04-10T19:55:54.111Z,100116.28
2023-04-10T19:58:39.980Z,100119.13
2023-04-10T20:01:13.042Z,100117.44
2023-04-10T20:10:39.345Z,100100.66
2023-04-10T20:13:10.807Z,100107.19
2023-04-10T20:15:41.383Z,100105.63
2023-04-10T20:18:12.644Z,100103.44
2023-04-10T20:20:43.533Z,100106.50
2023-04-10T20:23:14.507Z,100079.59
2023-04-10T20:25:48.685Z,100102.66
2023-04-10T20:28:21.985Z,100102.34
2023-04-10T20:34:05.528Z,100098.28
2023-04-10T20:36:38.614Z,100105.88
2023-04-10T20:42:41.224Z,100068.78
2023-04-10T20:45:13.190Z,100087.50
2023-04-10T20:47:43.624Z,100102.44
2023-04-10T20:50:14.837Z,100093.91
2023-04-10T20:52:45.694Z,100098.75
2023-04-10T20:55:17.267Z,100092.66
2023-04-10T20:57:50.466Z,100097.31
2023-04-10T21:00:21.476Z,100097.50
2023-04-10T21:02:51.934Z,100093.47
2023-04-10T21:05:24.433Z,100105.44
2023-04-10T21:07:54.870Z,100102.50
2023-04-10T21:10:25.561Z,100097.34
2023-04-10T21:12:58.453Z,100097.56
2023-04-10T21:15:28.887Z,100099.56
2023-04-10T21:17:59.797Z,100102.28
2023-04-10T21:20:31.180Z,100093.88
2023-04-10T21:23:01.564Z,100092.81
2023-04-10T21:25:35.058Z,100103.31
2023-04-10T21:28:11.409Z,100098.47
2023-04-10T21:30:42.335Z,100110.56
2023-04-10T21:33:12.615Z,100110.47
2023-04-10T21:35:48.708Z,100104.81
2023-04-10T21:38:19.097Z,100108.47
2023-04-10T21:40:54.223Z,100109.03
2023-04-10T21:43:29.502Z,100111.97
2023-04-10T21:46:03.319Z,100111.66
2023-04-10T21:48:33.582Z,100107.97
2023-04-10T21:51:05.235Z,100103.25
2023-04-10T21:53:35.548Z,100109.13
2023-04-10T21:56:05.799Z,100098.75
2023-04-10T21:58:41.233Z,100095.47
2023-04-10T22:01:13.303Z,100106.09
2023-04-10T22:03:43.908Z,100101.78
2023-04-10T22:06:14.911Z,100096.41
2023-04-10T22:08:45.684Z,100088.63
2023-04-10T22:11:18.688Z,100089.78
2023-04-10T22:13:52.746Z,100089.22
2023-04-10T22:16:25.995Z,100086.66
2023-04-10T22:18:56.794Z,100082.34
2023-04-10T22:21:27.608Z,100074.16
2023-04-10T22:23:57.912Z,100069.41
2023-04-10T22:26:30.502Z,100076.34
2023-04-10T22:29:03.623Z,100071.50
2023-04-10T22:31:34.041Z,100069.94
2023-04-10T22:34:04.626Z,100067.50
2023-04-10T22:36:36.480Z,100061.31
2023-04-10T22:39:07.298Z,100054.91
2023-04-10T22:41:37.612Z,100054.38
2023-04-10T22:44:10.464Z,100053.06
2023-04-10T22:46:40.848Z,100053.59
2023-04-10T22:49:17.338Z,100044.75
2023-04-10T22:51:48.635Z,100044.09
2023-04-10T22:54:19.204Z,100039.69
2023-04-10T22:56:51.045Z,100010.88
2023-04-10T22:59:26.307Z,100037.22
2023-04-10T23:01:56.837Z,100034.38
2023-04-10T23:04:28.270Z,100028.78
2023-04-10T23:06:58.553Z,100043.50
2023-04-10T23:09:28.939Z,100032.25
2023-04-10T23:11:59.436Z,100029.91
2023-04-10T23:21:46.122Z,100028.78
2023-04-10T23:24:16.654Z,100023.00
2023-04-10T23:26:46.953Z,100021.81
2023-04-10T23:29:17.190Z,100017.50
2023-04-10T23:31:47.447Z,100015.31
2023-04-10T23:34:19.047Z,100010.06
2023-04-10T23:36:51.992Z,100012.00
2023-04-10T23:39:22.630Z,100006.72
2023-04-10T23:41:53.050Z,100003.69
2023-04-10T23:44:23.414Z,100003.69
2023-04-10T23:46:54.002Z,100005.59
2023-04-10T23:53:08.936Z,99998.56
2023-04-10T23:55:39.740Z,99990.81
2023-04-10T23:58:11.010Z,99997.75
